Godeffroy, New York
Current Conditions -  °F | °C
As of 10:01 AM on Thursday 30 Oct 2014 (Local Time) from KFWN Reporting Station
Broken Clouds Broken Clouds  
Wind Chill: 44°   Ceiling: 200
Heat Index: 46°   Visibility: 8mi
Dew Point: 44°   Wind: 5mph
Humidity: 93%   Direction: 210°SSW
Pressure: 30.02"   Gusts: NA
Location:  41.45°N, 74.61°W
Report Text: KFWN 301401Z AUTO 21004KT 8SM BKN002 08/07 A3002 RMK AO2 T00780067
Loading
Personal Weather Stations






























Interactive Weather Map
Tropical Storm Tracking
New forecast layout! Learn more

10-Day Weather Forecast

Advertisements
Track Severe Weather on mobile